Terminal Aerodrome Forecast
Issued by NWS Grand Forks, ND

Home | Current Version | Previous Version | Text Only | Print | Product List | Glossary Off
Versions: 1 2 3 4 5 6 7 8 9 10 11 12 13 14 15 16 17 18 19 20 21 22 23

000
FTUS43 KFGF 181058 AAA
TAFFAR
TAF AMD
KFAR 181058Z 1811/1906 14007KT P6SM SCT090
     FM181300 15010KT P6SM BKN090
     FM181600 16014KT P6SM SCT100=

USA.gov is the U.S. government's official web portal to all federal, state and local government web resources and services.